Time;durP1;ratioP1;P1;durP2;ratioP2;P2;SDS_P1;SDS_P2;PMS_P1;PMS_P2;Temp;Humidity;BMP_temperature;BMP_pressure;BME280_temperature;BME280_humidity;BME280_pressure;Samples;Min_cycle;Max_cycle;Signal;HPM_P1;HPM_P2
2024/01/04 00:00:09;;;;;;;7.85;1.90;;;;;;;7.24;100.00;99476.03;5034355;28;20032;-77
2024/01/04 00:02:34;;;;;;;9.18;1.88;;;;;;;7.27;100.00;99493.78;5034206;28;20059;-77
2024/01/04 00:04:59;;;;;;;4.85;1.45;;;;;;;7.22;100.00;99509.50;5033989;28;20397;-77
2024/01/04 00:07:25;;;;;;;3.35;0.90;;;;;;;7.15;100.00;99509.13;5034084;28;20465;-77
2024/01/04 00:09:51;;;;;;;2.45;1.13;;;;;;;6.99;100.00;99498.28;5034043;28;20029;-78
2024/01/04 00:12:17;;;;;;;2.63;0.90;;;;;;;6.86;100.00;99492.34;5033815;28;20101;-78
2024/01/04 00:14:42;;;;;;;4.53;1.25;;;;;;;6.69;100.00;99473.00;5033971;28;20026;-78
2024/01/04 00:17:08;;;;;;;3.58;1.40;;;;;;;6.98;100.00;99518.91;5033784;28;20029;-78
2024/01/04 00:19:33;;;;;;;5.07;1.90;;;;;;;6.77;100.00;99504.06;5033772;28;20018;-78
2024/01/04 00:21:58;;;;;;;6.18;1.40;;;;;;;6.93;100.00;99532.06;5033913;28;20495;-78
2024/01/04 00:24:24;;;;;;;3.92;1.77;;;;;;;6.96;100.00;99536.97;5033711;28;20483;-78
2024/01/04 00:26:49;;;;;;;6.75;2.10;;;;;;;6.97;100.00;99548.88;5033615;28;20036;-78
2024/01/04 00:29:14;;;;;;;4.93;1.92;;;;;;;6.99;100.00;99552.19;5032294;28;20041;-78
2024/01/04 00:31:41;;;;;;;6.15;2.35;;;;;;;6.82;100.00;99527.66;5033430;28;20053;-78
2024/01/04 00:34:06;;;;;;;7.20;2.63;;;;;;;6.90;100.00;99540.81;5033530;28;20047;-78
2024/01/04 00:36:32;;;;;;;8.88;2.53;;;;;;;7.07;100.00;99573.00;5033647;28;20021;-78
2024/01/04 00:38:57;;;;;;;10.52;2.63;;;;;;;6.97;100.00;99556.59;5032272;28;20060;-79
2024/01/04 00:41:22;;;;;;;9.00;3.40;;;;;;;7.09;100.00;99584.00;5033477;28;20018;-77
2024/01/04 00:43:48;;;;;;;5.97;2.42;;;;;;;6.75;100.00;99533.31;5033423;28;20469;-78
2024/01/04 00:46:13;;;;;;;7.10;2.30;;;;;;;7.03;100.00;99578.44;5033230;28;20358;-78
2024/01/04 00:48:38;;;;;;;7.90;1.77;;;;;;;6.99;100.00;99579.59;5033300;28;20501;-78
2024/01/04 00:51:04;;;;;;;5.25;1.58;;;;;;;7.09;100.00;99612.22;5033308;28;20037;-77
2024/01/04 00:53:29;;;;;;;5.97;1.38;;;;;;;7.09;100.00;99622.50;5033301;28;20474;-77
2024/01/04 00:55:54;;;;;;;7.13;1.73;;;;;;;7.09;100.00;99609.66;5033194;28;20052;-78
2024/01/04 00:58:20;;;;;;;5.45;1.45;;;;;;;7.11;100.00;99625.78;5033123;28;20045;-78
2024/01/04 01:00:45;;;;;;;7.30;2.00;;;;;;;7.09;100.00;99626.81;5032964;28;20103;-77
2024/01/04 01:03:10;;;;;;;7.13;2.70;;;;;;;7.06;100.00;99621.88;5032904;28;20132;-78
2024/01/04 01:05:36;;;;;;;10.00;2.55;;;;;;;7.17;100.00;99645.06;5033237;28;20453;-78
2024/01/04 01:08:01;;;;;;;9.73;2.47;;;;;;;7.12;100.00;99636.88;5032931;28;20040;-78
2024/01/04 01:10:29;;;;;;;8.10;2.10;;;;;;;7.17;100.00;99658.72;5033041;28;20017;-78
2024/01/04 01:12:55;;;;;;;7.30;2.28;;;;;;;7.19;100.00;99662.03;5032966;28;20100;-78
2024/01/04 01:15:20;;;;;;;7.28;2.20;;;;;;;7.21;100.00;99666.25;5032667;28;20513;-78
2024/01/04 01:17:45;;;;;;;7.03;2.10;;;;;;;7.08;100.00;99641.41;5032902;28;20178;-77
2024/01/04 01:20:11;;;;;;;6.82;1.80;;;;;;;7.22;100.00;99665.31;5033054;28;20045;-78
2024/01/04 01:22:36;;;;;;;7.13;2.10;;;;;;;7.15;100.00;99655.44;5032910;28;20429;-78
2024/01/04 01:25:02;;;;;;;6.72;2.20;;;;;;;7.04;100.00;99650.22;5032757;28;20056;-78
2024/01/04 01:27:27;;;;;;;6.82;2.05;;;;;;;7.24;100.00;99666.84;5032614;28;20030;-78
2024/01/04 01:29:52;;;;;;;8.20;1.90;;;;;;;7.22;100.00;99665.31;5032669;28;20021;-78
2024/01/04 01:32:18;;;;;;;7.53;1.85;;;;;;;7.18;100.00;99678.38;5032506;28;20088;-78
2024/01/04 01:34:43;;;;;;;8.88;2.40;;;;;;;7.18;100.00;99683.50;5032582;28;20389;-78
2024/01/04 01:37:09;;;;;;;11.38;2.60;;;;;;;7.22;100.00;99699.50;5032600;28;20072;-77
2024/01/04 01:39:34;;;;;;;10.95;2.65;;;;;;;7.09;100.00;99678.97;5032588;28;20052;-78
2024/01/04 01:42:00;;;;;;;6.18;1.90;;;;;;;7.24;100.00;99701.97;5032707;28;20069;-78
2024/01/04 01:44:25;;;;;;;5.97;2.42;;;;;;;7.12;100.00;99688.22;5032558;28;20080;-78
2024/01/04 01:46:50;;;;;;;10.80;2.33;;;;;;;7.25;100.00;99708.75;5034227;28;20021;-78
2024/01/04 01:49:16;;;;;;;12.50;2.60;;;;;;;7.23;100.00;99715.72;5036715;28;20372;-78
2024/01/04 01:51:41;;;;;;;6.30;1.85;;;;;;;7.04;100.00;99683.59;5036598;28;20033;-77
2024/01/04 01:54:07;;;;;;;11.95;2.92;;;;;;;7.22;100.00;99714.09;5036861;28;20021;-78
2024/01/04 01:56:33;;;;;;;10.10;2.63;;;;;;;7.28;100.00;99735.06;5036492;28;20057;-78
2024/01/04 01:59:01;;;;;;;13.07;2.80;;;;;;;7.21;100.00;99726.13;5036501;28;20026;-78
2024/01/04 02:01:27;;;;;;;8.90;2.80;;;;;;;7.30;100.00;99745.22;5036264;28;20013;-78
2024/01/04 02:03:54;;;;;;;8.93;2.80;;;;;;;7.31;100.00;99742.56;5018545;28;20026;-78
2024/01/04 02:06:19;;;;;;;10.82;3.50;;;;;;;7.31;100.00;99745.13;5036390;28;20039;-77
2024/01/04 02:08:48;;;;;;;9.35;3.22;;;;;;;7.33;100.00;99756.09;5036423;28;20100;-77
2024/01/04 02:11:13;;;;;;;11.43;3.60;;;;;;;7.21;100.00;99733.81;5036145;28;20021;-78
2024/01/04 02:13:38;;;;;;;11.43;3.40;;;;;;;7.36;100.00;99752.50;5036440;28;20492;-78
2024/01/04 02:16:04;;;;;;;9.15;3.70;;;;;;;7.13;100.00;99736.88;5036005;28;20073;-78
2024/01/04 02:18:29;;;;;;;11.98;4.10;;;;;;;7.23;100.00;99756.81;5034702;28;20033;-78
2024/01/04 02:20:54;;;;;;;10.20;3.28;;;;;;;7.35;100.00;99782.50;5036077;28;20104;-78
2024/01/04 02:23:20;;;;;;;11.95;3.83;;;;;;;7.23;100.00;99759.38;5035952;28;20029;-78
2024/01/04 02:25:45;;;;;;;9.75;3.47;;;;;;;7.27;100.00;99768.53;5035937;28;20025;-78
2024/01/04 02:28:11;;;;;;;10.23;3.80;;;;;;;7.36;100.00;99789.28;5036106;28;20029;-78
2024/01/04 02:30:36;;;;;;;10.65;3.35;;;;;;;7.36;100.00;99791.84;5035933;28;20021;-77
2024/01/04 02:33:01;;;;;;;11.77;3.72;;;;;;;7.15;100.00;99760.72;5034006;28;20045;-78
2024/01/04 02:35:27;;;;;;;11.75;3.70;;;;;;;7.26;100.00;99782.28;5035785;28;20056;-75
2024/01/04 02:37:53;;;;;;;10.02;3.47;;;;;;;7.29;100.00;99785.50;5035818;28;20431;-78
2024/01/04 02:40:18;;;;;;;9.70;2.90;;;;;;;7.38;100.00;99805.44;5035658;28;20026;-78
2024/01/04 02:42:44;;;;;;;13.18;3.72;;;;;;;7.32;100.00;99792.97;5028643;28;20106;-77
2024/01/04 02:45:09;;;;;;;7.63;3.25;;;;;;;7.25;100.00;99796.03;5016016;28;20030;-77
2024/01/04 02:47:34;;;;;;;9.50;3.35;;;;;;;7.30;100.00;99791.44;5015600;28;20022;-78
2024/01/04 02:50:00;;;;;;;14.60;4.20;;;;;;;7.37;100.00;99802.94;5015670;28;20037;-78
2024/01/04 02:52:25;;;;;;;9.63;3.40;;;;;;;7.37;100.00;99814.03;5015893;28;20022;-78
2024/01/04 02:54:50;;;;;;;12.73;3.25;;;;;;;7.37;100.00;99811.47;5015597;28;20482;-78
2024/01/04 02:57:16;;;;;;;13.65;3.80;;;;;;;7.28;100.00;99798.44;5014907;28;20541;-77
2024/01/04 02:59:41;;;;;;;11.70;3.78;;;;;;;7.24;100.00;99791.84;5015133;28;20033;-77
2024/01/04 03:02:06;;;;;;;11.73;4.10;;;;;;;7.30;100.00;99810.25;5015622;28;20058;-77
2024/01/04 03:04:32;;;;;;;8.43;3.13;;;;;;;7.18;100.00;99793.91;5013904;28;20088;-78
2024/01/04 03:06:57;;;;;;;10.50;3.38;;;;;;;7.31;100.00;99817.03;5015573;28;20034;-77
2024/01/04 03:09:22;;;;;;;9.40;3.88;;;;;;;7.22;100.00;99812.50;5015448;28;20046;-77
2024/01/04 03:11:48;;;;;;;10.82;3.53;;;;;;;7.28;100.00;99816.41;5015415;28;20025;-77
2024/01/04 03:14:13;;;;;;;9.80;3.47;;;;;;;7.29;100.00;99825.75;5015340;28;20049;-77
2024/01/04 03:16:38;;;;;;;9.55;3.25;;;;;;;7.29;100.00;99836.03;5015351;28;20462;-78
2024/01/04 03:19:04;;;;;;;9.18;3.00;;;;;;;7.25;100.00;99834.56;5015037;28;20033;-77
2024/01/04 03:21:29;;;;;;;9.75;3.28;;;;;;;7.25;100.00;99832.81;5014961;28;20249;-77
2024/01/04 03:23:54;;;;;;;8.38;2.95;;;;;;;7.30;100.00;99843.63;5015186;28;20026;-77
2024/01/04 03:26:19;;;;;;;8.20;3.13;;;;;;;7.30;100.00;99842.81;5015321;28;20030;-77
2024/01/04 03:28:45;;;;;;;7.03;2.65;;;;;;;7.19;100.00;99828.09;5014973;28;20109;-77
2024/01/04 03:31:10;;;;;;;9.88;3.33;;;;;;;7.38;100.00;99858.53;5014751;28;20069;-77
2024/01/04 03:33:35;;;;;;;9.15;3.58;;;;;;;7.37;100.00;99864.56;5014713;28;20073;-78
2024/01/04 03:36:01;;;;;;;10.02;3.40;;;;;;;7.16;100.00;99831.66;5014511;28;20117;-77
2024/01/04 03:38:26;;;;;;;6.82;3.30;;;;;;;7.41;100.00;99872.00;5015007;28;20108;-78
2024/01/04 03:40:51;;;;;;;8.68;2.97;;;;;;;7.40;100.00;99874.69;5014835;28;20465;-77
2024/01/04 03:43:17;;;;;;;11.73;3.95;;;;;;;7.39;100.00;99876.41;5014952;28;20025;-77
2024/01/04 03:45:42;;;;;;;8.90;3.50;;;;;;;7.41;100.00;99876.31;5014870;28;20037;-77
2024/01/04 03:48:07;;;;;;;9.15;3.53;;;;;;;7.31;100.00;99872.69;5014635;28;20417;-77
2024/01/04 03:50:33;;;;;;;10.18;4.03;;;;;;;7.37;100.00;99877.41;5014272;28;20096;-77
2024/01/04 03:52:58;;;;;;;10.68;4.90;;;;;;;7.37;100.00;99880.81;5014534;28;20081;-77
2024/01/04 03:55:23;;;;;;;9.38;3.72;;;;;;;7.26;100.00;99865.28;5014534;28;20021;-77
2024/01/04 03:57:50;;;;;;;9.07;3.97;;;;;;;7.24;100.00;99866.31;5014448;28;20026;-77
2024/01/04 04:00:16;;;;;;;13.98;4.03;;;;;;;7.19;100.00;99870.00;5014525;28;20029;-78
2024/01/04 04:02:41;;;;;;;9.68;3.40;;;;;;;7.29;100.00;99889.97;5014493;28;20533;-77
2024/01/04 04:05:07;;;;;;;10.93;4.03;;;;;;;7.27;100.00;99891.78;5014024;28;20021;-78
2024/01/04 04:07:32;;;;;;;8.65;3.63;;;;;;;7.17;100.00;99876.97;5014110;28;20025;-77
2024/01/04 04:09:58;;;;;;;9.93;4.20;;;;;;;7.29;100.00;99902.78;5013832;28;20022;-78
2024/01/04 04:12:24;;;;;;;10.75;4.32;;;;;;;7.24;100.00;99904.81;5014012;28;20387;-78
2024/01/04 04:14:51;;;;;;;10.30;4.15;;;;;;;7.21;100.00;99898.16;5014176;28;20033;-77
2024/01/04 04:17:18;;;;;;;10.45;3.85;;;;;;;7.16;100.00;99913.00;5013961;28;20049;-78
2024/01/04 04:19:43;;;;;;;11.43;3.83;;;;;;;7.03;100.00;99894.16;5013841;28;20036;-77
2024/01/04 04:22:09;;;;;;;9.05;4.30;;;;;;;7.12;100.00;99920.09;5013801;28;20116;-77
2024/01/04 04:24:34;;;;;;;8.38;4.43;;;;;;;7.06;100.00;99915.31;5014083;28;20414;-77
2024/01/04 04:26:59;;;;;;;10.27;4.65;;;;;;;7.01;100.00;99916.56;5013979;28;20057;-77
2024/01/04 04:29:25;;;;;;;10.93;4.65;;;;;;;6.92;100.00;99910.25;5014010;28;20366;-77
2024/01/04 04:31:50;;;;;;;16.45;5.13;;;;;;;6.88;100.00;99913.91;5012163;28;20052;-78
2024/01/04 04:34:15;;;;;;;11.55;5.03;;;;;;;6.73;100.00;99907.19;5013722;28;20100;-77
2024/01/04 04:36:41;;;;;;;11.95;4.60;;;;;;;6.86;100.00;99933.72;5013759;28;20469;-77
2024/01/04 04:39:08;;;;;;;13.23;4.70;;;;;;;6.80;100.00;99934.94;5013764;28;20066;-77
2024/01/04 04:41:33;;;;;;;11.00;4.13;;;;;;;6.82;100.00;99939.97;5013741;28;20394;-77
2024/01/04 04:43:59;;;;;;;9.60;3.95;;;;;;;6.84;100.00;99933.81;5013688;28;20025;-77
2024/01/04 04:46:24;;;;;;;8.48;3.55;;;;;;;6.86;100.00;99928.59;5012110;28;20038;-77
2024/01/04 04:48:54;;;;;;;8.55;3.30;;;;;;;7.02;100.00;99946.44;5013583;28;20382;-77
2024/01/04 04:51:20;;;;;;;8.65;3.25;;;;;;;6.91;100.00;99939.41;5013121;28;20041;-77
2024/01/04 04:53:45;;;;;;;10.70;3.45;;;;;;;7.07;100.00;99955.47;5013424;28;20026;-77
2024/01/04 04:56:11;;;;;;;7.72;2.70;;;;;;;7.11;100.00;99963.84;5013423;28;20030;-77
2024/01/04 04:58:36;;;;;;;6.25;2.58;;;;;;;7.04;100.00;99947.97;5013277;28;20049;-77
2024/01/04 05:01:01;;;;;;;8.77;2.90;;;;;;;7.18;100.00;99971.06;5013187;28;20112;-77
2024/01/04 05:03:27;;;;;;;8.45;3.38;;;;;;;7.17;100.00;99982.22;5013375;28;20390;-77
2024/01/04 05:05:53;;;;;;;6.35;2.55;;;;;;;7.13;100.00;99967.94;5013054;28;20026;-77
2024/01/04 05:08:18;;;;;;;7.38;2.85;;;;;;;6.98;100.00;99950.94;5013180;28;20029;-77
2024/01/04 05:10:43;;;;;;;6.63;2.63;;;;;;;7.11;100.00;99972.34;5013258;28;20118;-77
2024/01/04 05:13:09;;;;;;;6.35;2.45;;;;;;;6.91;100.00;99944.53;5013134;28;20112;-76
2024/01/04 05:15:34;;;;;;;9.38;2.60;;;;;;;6.90;100.00;99932.63;5013022;28;20085;-78
2024/01/04 05:17:59;;;;;;;8.10;2.20;;;;;;;7.15;100.00;99978.94;5013038;28;20042;-79
2024/01/04 05:20:25;;;;;;;6.03;2.35;;;;;;;7.14;100.00;99986.75;5012647;28;20076;-78
2024/01/04 05:22:50;;;;;;;4.72;1.98;;;;;;;7.13;100.00;99988.47;5012541;28;20488;-78
2024/01/04 05:25:15;;;;;;;5.25;2.47;;;;;;;6.94;100.00;99959.75;4994906;28;20042;-78
2024/01/04 05:27:41;;;;;;;6.80;2.50;;;;;;;7.13;100.00;99998.75;5013026;28;20028;-78
2024/01/04 05:30:07;;;;;;;5.65;2.22;;;;;;;7.08;100.00;99989.69;5013014;28;20025;-78
2024/01/04 05:32:36;;;;;;;6.55;2.30;;;;;;;7.11;100.00;99998.03;5012894;28;20045;-78
2024/01/04 05:35:02;;;;;;;7.55;2.80;;;;;;;7.11;100.00;100000.59;5012627;28;20014;-77
2024/01/04 05:37:28;;;;;;;6.63;2.75;;;;;;;7.13;100.00;99997.94;5012919;28;20034;-77
2024/01/04 05:39:53;;;;;;;6.32;2.88;;;;;;;6.94;100.00;99974.31;5012795;28;20030;-78
2024/01/04 05:42:19;;;;;;;7.55;3.42;;;;;;;7.13;100.00;100003.06;5012759;28;20026;-78
2024/01/04 05:44:44;;;;;;;11.57;3.95;;;;;;;7.12;100.00;100004.00;5013052;28;20054;-78
2024/01/04 05:47:09;;;;;;;9.00;3.90;;;;;;;7.08;100.00;100013.63;5013021;28;20030;-78
2024/01/04 05:49:35;;;;;;;11.27;3.75;;;;;;;7.00;100.00;100015.00;5012891;28;20085;-77
2024/01/04 05:52:00;;;;;;;13.82;4.30;;;;;;;6.90;100.00;100019.88;5012675;28;20026;-77
2024/01/04 05:54:26;;;;;;;12.32;4.10;;;;;;;6.80;100.00;100019.63;5012807;28;20037;-78
2024/01/04 05:56:51;;;;;;;8.18;3.85;;;;;;;6.86;100.00;100031.22;5011145;28;20444;-78
2024/01/04 05:59:16;;;;;;;9.30;4.10;;;;;;;6.92;100.00;100032.63;5012678;28;20091;-78
2024/01/04 06:01:42;;;;;;;12.65;4.50;;;;;;;6.95;100.00;100038.38;5012898;28;20034;-77
2024/01/04 06:04:07;;;;;;;11.15;5.00;;;;;;;6.88;100.00;100019.13;5012634;28;20029;-78
2024/01/04 06:06:33;;;;;;;12.73;5.47;;;;;;;7.04;100.00;100037.00;5012355;28;20113;-78
2024/01/04 06:08:58;;;;;;;13.73;5.25;;;;;;;7.00;100.00;100038.13;5012611;28;20124;-77
2024/01/04 06:11:24;;;;;;;10.35;4.50;;;;;;;6.99;100.00;100039.88;5012147;28;20053;-78
2024/01/04 06:13:49;;;;;;;12.52;4.95;;;;;;;6.85;100.00;100029.59;4994665;28;20046;-77
2024/01/04 06:16:17;;;;;;;13.52;5.65;;;;;;;6.76;100.00;100027.56;5012532;28;20494;-78
2024/01/04 06:18:42;;;;;;;12.25;5.05;;;;;;;6.89;100.00;100057.56;5012657;28;20033;-77
2024/01/04 06:21:07;;;;;;;12.30;5.25;;;;;;;6.89;100.00;100067.00;5012321;28;20015;-78
2024/01/04 06:23:33;;;;;;;9.50;4.55;;;;;;;6.78;100.00;100038.56;5012524;28;20394;-78
2024/01/04 06:25:59;;;;;;;10.50;4.50;;;;;;;6.88;100.00;100060.19;5012202;28;20029;-76
2024/01/04 06:28:24;;;;;;;9.35;4.10;;;;;;;6.88;100.00;100073.88;5012604;28;20097;-77
2024/01/04 06:30:50;;;;;;;9.15;3.72;;;;;;;6.71;100.00;100050.13;5012501;28;20033;-77
2024/01/04 06:33:16;;;;;;;10.75;4.00;;;;;;;6.87;100.00;100081.63;5014571;28;20042;-78
2024/01/04 06:35:42;;;;;;;10.43;4.35;;;;;;;6.85;100.00;100080.91;5016006;28;20030;-77
2024/01/04 06:38:08;;;;;;;8.23;3.80;;;;;;;6.84;100.00;100080.09;5015687;28;20026;-77
2024/01/04 06:40:34;;;;;;;8.40;3.78;;;;;;;6.82;100.00;100081.09;5015978;28;20034;-76
2024/01/04 06:43:03;;;;;;;11.77;3.58;;;;;;;6.80;100.00;100091.47;5015725;28;20022;-76
2024/01/04 06:45:28;;;;;;;8.05;4.13;;;;;;;6.79;100.00;100092.38;5015765;28;20426;-76
2024/01/04 06:47:54;;;;;;;9.30;3.65;;;;;;;6.76;100.00;100097.69;5015731;28;20077;-76
2024/01/04 06:50:19;;;;;;;9.88;4.22;;;;;;;6.80;100.00;100106.88;5015820;28;20409;-76
2024/01/04 06:52:44;;;;;;;9.00;3.88;;;;;;;6.81;100.00;100117.94;5015485;28;20032;-76
2024/01/04 06:55:10;;;;;;;8.75;3.90;;;;;;;6.56;100.00;100073.19;4998039;28;20045;-75
2024/01/04 06:57:35;;;;;;;8.50;4.13;;;;;;;6.70;100.00;100108.31;5015404;28;20026;-75
2024/01/04 07:00:01;;;;;;;9.88;3.90;;;;;;;6.81;100.00;100128.22;5015744;28;20022;-74
2024/01/04 07:02:26;;;;;;;7.63;4.03;;;;;;;6.86;100.00;100139.84;5015473;28;20026;-73
2024/01/04 07:04:52;;;;;;;6.88;3.63;;;;;;;6.64;100.00;100105.28;5015442;28;20053;-72
2024/01/04 07:07:17;;;;;;;10.10;4.40;;;;;;;6.81;100.00;100131.59;4996783;28;20027;-72
2024/01/04 07:09:42;;;;;;;9.75;4.25;;;;;;;6.90;100.00;100154.16;4995779;28;20034;-71
2024/01/04 07:12:08;;;;;;;10.57;4.07;;;;;;;6.82;100.00;100152.97;4995589;28;20026;-72
2024/01/04 07:14:38;;;;;;;8.70;4.00;;;;;;;6.94;100.00;100164.25;4995455;28;20036;-71
2024/01/04 07:17:04;;;;;;;9.38;4.28;;;;;;;6.95;100.00;100164.16;4995413;28;20105;-72
2024/01/04 07:19:29;;;;;;;8.95;4.03;;;;;;;6.92;100.00;100164.34;4995648;28;20466;-72
2024/01/04 07:21:55;;;;;;;10.85;4.57;;;;;;;6.79;100.00;100142.88;4995204;28;20031;-72
2024/01/04 07:24:20;;;;;;;9.63;4.38;;;;;;;6.85;100.00;100150.19;4995380;28;20498;-72
2024/01/04 07:26:45;;;;;;;9.85;4.30;;;;;;;6.89;100.00;100162.78;4995516;28;20077;-72
2024/01/04 07:29:11;;;;;;;7.40;3.35;;;;;;;6.82;100.00;100146.09;4995220;28;20018;-73
2024/01/04 07:31:36;;;;;;;7.53;2.63;;;;;;;6.92;100.00;100163.50;4997008;28;20489;-72
2024/01/04 07:34:03;;;;;;;6.05;2.33;;;;;;;6.87;100.00;100169.72;5014934;28;20516;-71
2024/01/04 07:36:28;;;;;;;6.57;2.20;;;;;;;6.79;100.00;100164.25;5014623;28;20033;-74
2024/01/04 07:38:53;;;;;;;5.80;2.08;;;;;;;6.92;100.00;100186.63;5014779;28;20026;-72
2024/01/04 07:41:19;;;;;;;4.65;2.15;;;;;;;6.95;100.00;100189.00;5014773;28;20116;-71
2024/01/04 07:43:45;;;;;;;6.95;2.63;;;;;;;6.87;100.00;100177.44;5014000;28;20474;-72
2024/01/04 07:46:10;;;;;;;6.85;2.85;;;;;;;6.91;100.00;100185.78;5014908;28;20037;-73
2024/01/04 07:48:36;;;;;;;7.22;2.95;;;;;;;6.93;100.00;100190.81;5014562;28;20064;-75
2024/01/04 07:51:01;;;;;;;7.40;3.10;;;;;;;6.90;100.00;100181.56;5014613;28;20083;-73
2024/01/04 07:53:26;;;;;;;8.57;3.47;;;;;;;6.96;100.00;100199.16;5014396;28;20030;-73
2024/01/04 07:55:51;;;;;;;6.60;3.25;;;;;;;6.96;100.00;100206.88;5014501;28;20029;-75
2024/01/04 07:58:17;;;;;;;6.78;3.55;;;;;;;6.82;100.00;100176.06;5014394;28;20489;-75
2024/01/04 08:00:42;;;;;;;9.07;3.97;;;;;;;6.99;100.00;100198.19;4996656;28;20074;-73
2024/01/04 08:03:07;;;;;;;8.48;4.43;;;;;;;6.99;100.00;100211.84;5012506;28;20176;-74
2024/01/04 08:05:33;;;;;;;10.55;5.00;;;;;;;6.88;100.00;100186.81;4996692;28;20393;-74
2024/01/04 08:07:58;;;;;;;10.50;5.20;;;;;;;6.96;100.00;100216.31;5014205;28;20037;-75
2024/01/04 08:10:23;;;;;;;10.35;4.93;;;;;;;6.99;100.00;100216.97;5014223;28;20051;-74
2024/01/04 08:12:49;;;;;;;8.45;5.60;;;;;;;7.01;100.00;100222.03;5014141;28;20378;-74
2024/01/04 08:15:15;;;;;;;9.82;5.32;;;;;;;6.88;100.00;100196.22;5014162;28;20041;-74
2024/01/04 08:17:40;;;;;;;9.25;5.38;;;;;;;7.00;100.00;100210.09;5013760;28;20036;-73
2024/01/04 08:20:06;;;;;;;11.75;5.70;;;;;;;7.07;100.00;100224.22;5014074;28;20022;-73
2024/01/04 08:22:31;;;;;;;9.68;5.38;;;;;;;6.99;100.00;100208.44;5013817;28;20036;-73
2024/01/04 08:24:56;;;;;;;10.80;5.13;;;;;;;7.12;100.00;100228.19;5013932;28;20367;-73
2024/01/04 08:27:23;;;;;;;11.77;5.28;;;;;;;7.18;100.00;100230.41;4996350;28;20040;-74
2024/01/04 08:29:49;;;;;;;11.93;5.68;;;;;;;6.99;100.00;100185.34;5014072;28;20057;-73
2024/01/04 08:32:18;;;;;;;10.45;5.03;;;;;;;7.28;100.00;100237.56;5013535;28;20157;-72
2024/01/04 08:34:43;;;;;;;12.68;5.00;;;;;;;7.30;100.00;100234.00;5013870;28;20026;-73
2024/01/04 08:37:09;;;;;;;13.85;4.82;;;;;;;7.26;100.00;100231.66;5013658;28;20033;-71
2024/01/04 08:39:35;;;;;;;10.20;4.38;;;;;;;7.29;100.00;100232.34;5013711;28;20140;-73
2024/01/04 08:42:00;;;;;;;9.15;4.10;;;;;;;7.15;100.00;100204.88;5013589;28;20030;-75
2024/01/04 08:44:25;;;;;;;12.43;4.30;;;;;;;7.26;100.00;100226.53;5013540;28;20025;-73
2024/01/04 08:46:52;;;;;;;8.68;4.15;;;;;;;7.13;100.00;100201.59;5011927;28;20033;-72
2024/01/04 08:49:18;;;;;;;9.73;4.43;;;;;;;7.43;100.00;100249.50;5013714;28;20165;-73
2024/01/04 08:51:43;;;;;;;11.55;3.90;;;;;;;7.32;100.00;100234.72;5013460;28;20022;-74
2024/01/04 08:54:08;;;;;;;13.52;4.25;;;;;;;7.22;100.00;100212.25;5013369;28;20034;-74
2024/01/04 08:56:35;;;;;;;8.80;3.67;;;;;;;7.43;100.00;100250.31;5013315;28;20029;-74
2024/01/04 08:59:02;;;;;;;9.05;3.50;;;;;;;7.38;100.00;100243.81;5013134;28;20026;-74
2024/01/04 09:01:28;;;;;;;8.73;3.75;;;;;;;7.47;100.00;100259.50;5013263;28;20022;-75
2024/01/04 09:03:53;;;;;;;11.70;3.65;;;;;;;7.56;100.00;100265.81;5013261;28;20033;-74
2024/01/04 09:06:18;;;;;;;6.40;3.15;;;;;;;7.61;100.00;100265.56;5013555;28;20034;-74
2024/01/04 09:08:44;;;;;;;12.23;3.25;;;;;;;7.59;100.00;100268.22;5013034;28;20021;-74
2024/01/04 09:11:09;;;;;;;8.15;2.75;;;;;;;7.58;100.00;100271.72;5013188;28;20073;-75
2024/01/04 09:13:35;;;;;;;10.15;2.80;;;;;;;7.58;100.00;100273.47;4995429;28;20481;-73
2024/01/04 09:16:00;;;;;;;8.18;2.72;;;;;;;7.55;100.00;100274.44;5013247;28;20030;-74
2024/01/04 09:18:25;;;;;;;6.00;2.53;;;;;;;7.58;100.00;100278.59;5012973;28;20085;-73
2024/01/04 09:20:51;;;;;;;7.43;2.28;;;;;;;7.58;100.00;100270.91;5013053;28;20026;-74
2024/01/04 09:23:16;;;;;;;6.72;2.47;;;;;;;7.57;100.00;100266.66;5012934;28;20108;-73
2024/01/04 09:25:41;;;;;;;5.70;2.10;;;;;;;7.66;100.00;100264.34;5013089;28;20026;-72
2024/01/04 09:28:06;;;;;;;5.50;2.20;;;;;;;7.75;100.00;100281.78;5012658;28;20117;-72
2024/01/04 09:30:32;;;;;;;4.22;1.83;;;;;;;7.71;100.00;100275.19;5011706;28;20124;-74
2024/01/04 09:32:58;;;;;;;3.70;1.63;;;;;;;7.80;100.00;100294.38;5012850;28;20144;-72
2024/01/04 09:35:23;;;;;;;4.70;1.63;;;;;;;7.80;100.00;100303.84;5013096;28;20033;-73
2024/01/04 09:37:50;;;;;;;4.68;1.40;;;;;;;7.76;100.00;100301.44;5012950;28;20034;-73
2024/01/04 09:40:17;;;;;;;5.00;1.67;;;;;;;7.74;100.00;100300.72;5013045;28;20097;-73
2024/01/04 09:42:44;;;;;;;3.42;1.65;;;;;;;7.66;100.00;100290.06;5012799;28;20077;-74
2024/01/04 09:45:13;;;;;;;4.68;2.13;;;;;;;7.63;100.00;100294.56;5012938;28;20543;-74
2024/01/04 09:47:42;;;;;;;3.38;1.60;;;;;;;7.74;100.00;100315.31;5015707;28;20030;-72
2024/01/04 09:50:11;;;;;;;3.83;1.73;;;;;;;7.71;100.00;100321.47;5033035;28;20029;-70
2024/01/04 09:52:41;;;;;;;3.10;1.58;;;;;;;7.53;100.00;100303.72;5033184;28;20108;-73
2024/01/04 09:55:08;;;;;;;3.35;1.50;;;;;;;7.58;100.00;100312.84;5031900;28;20462;-73
2024/01/04 09:57:34;;;;;;;4.75;1.73;;;;;;;7.59;100.00;100327.34;5013723;28;20094;-72
2024/01/04 09:59:59;;;;;;;3.65;1.73;;;;;;;7.57;100.00;100339.44;5032089;28;20443;-72
2024/01/04 10:02:25;;;;;;;4.57;2.20;;;;;;;7.56;100.00;100342.09;5030546;28;20028;-69
2024/01/04 10:04:51;;;;;;;4.07;1.40;;;;;;;7.54;100.00;100349.88;5032867;28;20034;-70
2024/01/04 10:07:25;;;;;;;4.60;1.30;;;;;;;7.59;100.00;100345.31;5033963;28;20025;-72
2024/01/04 10:10:05;;;;;;;4.40;1.17;;;;;;;7.64;100.00;100345.03;5035978;28;20378;-72
2024/01/04 10:12:34;;;;;;;3.28;1.10;;;;;;;7.63;100.00;100351.91;5036123;28;20075;-72
2024/01/04 10:15:00;;;;;;;2.47;1.25;;;;;;;7.63;100.00;100343.38;5036294;28;20017;-72
2024/01/04 10:17:25;;;;;;;2.53;1.30;;;;;;;7.43;100.00;100311.16;5036084;28;20083;-71
2024/01/04 10:19:50;;;;;;;2.50;1.10;;;;;;;7.59;100.00;100347.88;5036148;28;20022;-72
2024/01/04 10:22:22;;;;;;;3.40;1.10;;;;;;;7.69;100.00;100361.84;5036222;28;20032;-73
2024/01/04 10:24:47;;;;;;;3.40;1.30;;;;;;;7.65;100.00;100346.69;5035955;28;20021;-73
2024/01/04 10:27:15;;;;;;;4.22;1.30;;;;;;;7.83;100.00;100357.63;5035962;28;20029;-72
2024/01/04 10:29:43;;;;;;;3.60;1.08;;;;;;;7.87;100.00;100351.41;5035887;28;20029;-73
2024/01/04 10:32:13;;;;;;;2.28;0.93;;;;;;;7.93;100.00;100361.31;5027573;28;20120;-72
2024/01/04 10:34:39;;;;;;;2.45;1.33;;;;;;;7.92;100.00;100359.66;5036059;28;20041;-72
2024/01/04 10:37:12;;;;;;;2.90;0.75;;;;;;;7.66;100.00;100326.03;5035702;28;20029;-73
2024/01/04 10:39:39;;;;;;;2.92;1.20;;;;;;;7.84;100.00;100361.84;5035722;28;20550;-72
2024/01/04 10:42:05;;;;;;;4.65;1.10;;;;;;;7.72;100.00;100361.66;5035706;28;20454;-72
2024/01/04 10:44:34;;;;;;;3.22;1.23;;;;;;;7.68;100.00;100374.78;5035607;28;20029;-74
2024/01/04 10:47:01;;;;;;;2.78;1.20;;;;;;;7.65;100.00;100362.09;5035657;28;20029;-73
2024/01/04 10:49:27;;;;;;;4.13;1.73;;;;;;;7.75;100.00;100364.03;5035688;28;20029;-73
2024/01/04 10:51:56;;;;;;;4.63;1.73;;;;;;;7.83;100.00;100362.78;5035427;28;20371;-73
2024/01/04 10:54:32;;;;;;;5.72;2.05;;;;;;;7.92;100.00;100375.09;5035332;28;20488;-73
2024/01/04 10:56:59;;;;;;;5.25;2.15;;;;;;;7.84;100.00;100344.69;5035239;28;20025;-72
2024/01/04 10:59:27;;;;;;;5.88;2.05;;;;;;;8.03;100.00;100370.97;5035315;28;20021;-71
2024/01/04 11:01:53;;;;;;;5.82;2.40;;;;;;;7.95;100.00;100362.03;5035388;28;20044;-74
2024/01/04 11:04:19;;;;;;;4.68;1.80;;;;;;;7.90;100.00;100364.06;5035631;28;20076;-77
2024/01/04 11:06:45;;;;;;;5.80;2.00;;;;;;;7.88;100.00;100371.06;5035479;28;20037;-76
2024/01/04 11:09:11;;;;;;;6.13;2.20;;;;;;;7.72;100.00;100356.53;5035206;28;20025;-75
2024/01/04 11:11:38;;;;;;;4.72;1.70;;;;;;;7.74;100.00;100353.84;5035320;28;20030;-75
2024/01/04 11:14:04;;;;;;;5.68;2.10;;;;;;;7.98;100.00;100372.16;5035131;28;20518;-74
2024/01/04 11:16:45;;;;;;;4.28;1.42;;;;;;;8.14;100.00;100370.31;5035197;28;20159;-72
2024/01/04 11:19:21;;;;;;;5.82;1.90;;;;;;;8.28;100.00;100377.22;5033916;28;20068;-76